| time (UTC) | temp C | wind direction | speed KPH | gust KPH | rain 1hr cm | rain 24hr cm | rain mn cm | humidity % | barometer mb |
| 20260509064143 | 13 | 45 | 0.0 | 0.0 | 0.00 | 0.00 | 0.00 | 76 | 1021.8 |
| 20260509063124 | 13 | 104 | 0.0 | 8.0 | 0.00 | 0.00 | 0.00 | 74 | 1021.7 |
| 20260509062124 | 13 | 208 | 0.0 | 8.0 | 0.00 | 0.00 | 0.00 | 77 | 1021.8 |
| 20260509061123 | 13 | 108 | 1.6 | 8.0 | 0.00 | 0.00 | 0.00 | 77 | 1021.8 |
| 20260509060124 | 14 | 135 | 0.0 | 3.2 | 0.00 | 0.00 | 0.00 | 78 | 1021.8 |
| 20260509055124 | 14 | 104 | 1.6 | 6.4 | 0.00 | 0.00 | 0.00 | 76 | 1021.8 |
| 20260509054122 | 14 | 192 | 0.0 | 6.4 | 0.00 | 0.00 | 0.00 | 74 | 1021.7 |
| 20260509053145 | 14 | 180 | 0.0 | 3.2 | 0.00 | 0.00 | 0.00 | 73 | 1021.6 |
| 20260509052123 | 14 | 58 | 1.6 | 9.7 | 0.00 | 0.00 | 0.00 | 73 | 1021.4 |
| 20260509051123 | 14 | 293 | 1.6 | 12.9 | 0.00 | 0.00 | 0.00 | 72 | 1021.5 |
| 20260509050122 | 14 | 287 | 1.6 | 9.7 | 0.00 | 0.00 | 0.00 | 73 | 1021.5 |
| 20260509045124 | 14 | 293 | 0.0 | 0.0 | 0.00 | 0.00 | 0.00 | 73 | 1021.5 |
| 20260509044124 | 14 | 292 | 0.0 | 6.4 | 0.00 | 0.00 | 0.00 | 71 | 1021.4 |
| 20260509043122 | 14 | 68 | 0.0 | 4.8 | 0.00 | 0.00 | 0.00 | 71 | 1021.2 |
| 20260509042124 | 14 | 68 | 1.6 | 11.3 | 0.00 | 0.00 | 0.00 | 72 | 1021.2 |
| 20260509041125 | 14 | 59 | 1.6 | 8.0 | 0.00 | 0.00 | 0.00 | 73 | 1021.1 |
| 20260509040143 | 14 | 23 | 0.0 | 4.8 | 0.00 | 0.00 | 0.00 | 73 | 1020.9 |
| 20260509035123 | 14 | 83 | 1.6 | 11.3 | 0.00 | 0.00 | 0.00 | 72 | 1020.9 |
| 20260509034122 | 15 | 90 | 0.0 | 4.8 | 0.00 | 0.00 | 0.00 | 72 | 1020.8 |
| 20260509033124 | 15 | 90 | 0.0 | 4.8 | 0.00 | 0.00 | 0.00 | 71 | 1020.8 |
| 20260509032145 | 15 | 80 | 0.0 | 4.8 | 0.00 | 0.00 | 0.00 | 71 | 1020.6 |
| 20260509031143 | 15 | 68 | 1.6 | 9.7 | 0.00 | 0.00 | 0.00 | 71 | 1020.5 |
| 20260509030122 | 15 | 50 | 1.6 | 6.4 | 0.00 | 0.00 | 0.00 | 70 | 1020.5 |
| 20260509025124 | 15 | 68 | 1.6 | 12.9 | 0.00 | 0.00 | 0.00 | 70 | 1020.5 |
| 20260509024122 | 16 | 49 | 1.6 | 9.7 | 0.00 | 0.00 | 0.00 | 70 | 1020.5 |
| 20260509023123 | 16 | 68 | 1.6 | 6.4 | 0.00 | 0.00 | 0.00 | 70 | 1020.4 |
| 20260509022144 | 16 | 47 | 1.6 | 12.9 | 0.00 | 0.00 | 0.00 | 69 | 1020.4 |
| 20260509021124 | 16 | 41 | 1.6 | 12.9 | 0.00 | 0.00 | 0.00 | 69 | 1020.2 |
| 20260509020123 | 16 | 18 | 1.6 | 8.0 | 0.00 | 0.00 | 0.00 | 70 | 1020.4 |
| 20260509015123 | 16 | 37 | 3.2 | 14.5 | 0.00 | 0.00 | 0.00 | 69 | 1020.4 |
| 20260509014122 | 16 | 33 | 1.6 | 12.9 | 0.00 | 0.00 | 0.00 | 68 | 1020.2 |
| 20260509013122 | 16 | 0 | 1.6 | 11.3 | 0.00 | 0.00 | 0.00 | 67 | 1020.2 |
| 20260509012123 | 16 | 32 | 1.6 | 16.1 | 0.00 | 0.00 | 0.00 | 66 | 1020.2 |
| 20260509011122 | 16 | 351 | 3.2 | 14.5 | 0.00 | 0.00 | 0.00 | 66 | 1020.2 |
| 20260509010122 | 16 | 42 | 3.2 | 14.5 | 0.00 | 0.00 | 0.00 | 66 | 1020.1 |
| 20260509005144 | 17 | 17 | 3.2 | 12.9 | 0.00 | 0.00 | 0.00 | 65 | 1020.1 |
| 20260509004122 | 17 | 6 | 1.6 | 8.0 | 0.00 | 0.00 | 0.00 | 64 | 1020.1 |
| 20260509003122 | 17 | 13 | 3.2 | 12.9 | 0.00 | 0.00 | 0.00 | 63 | 1020.0 |
| 20260509002124 | 17 | 23 | 3.2 | 12.9 | 0.00 | 0.00 | 0.00 | 63 | 1020.1 |
| 20260509001122 | 17 | 2 | 3.2 | 11.3 | 0.00 | 0.00 | 0.00 | 63 | 1020.1 |
| 20260509000122 | 17 | 31 | 4.8 | 16.1 | 0.00 | 0.00 | 0.00 | 63 | 1020.2 |
| 20260508235123 | 17 | 9 | 4.8 | 20.9 | 0.00 | 0.00 | 0.00 | 62 | 1020.2 |
| 20260508234122 | 18 | 25 | 4.8 | 16.1 | 0.00 | 0.00 | 0.00 | 61 | 1020.0 |
| 20260508233123 | 19 | 354 | 4.8 | 24.1 | 0.00 | 0.00 | 0.00 | 58 | 1019.9 |
| 20260508232145 | 18 | 352 | 3.2 | 16.1 | 0.00 | 0.00 | 0.00 | 60 | 1019.8 |
| 20260508231124 | 18 | 317 | 4.8 | 17.7 | 0.00 | 0.00 | 0.00 | 63 | 1019.8 |
| 20260508230143 | 17 | 295 | 4.8 | 12.9 | 0.00 | 0.00 | 0.00 | 63 | 1019.9 |
| 20260508225123 | 18 | 288 | 3.2 | 16.1 | 0.00 | 0.00 | 0.00 | 64 | 1019.9 |
| 20260508224143 | 17 | 321 | 4.8 | 20.9 | 0.00 | 0.00 | 0.00 | 64 | 1019.7 |
| 20260508223123 | 17 | 294 | 1.6 | 9.7 | 0.00 | 0.00 | 0.00 | 65 | 1019.6 |
| 20260508222145 | 17 | 36 | 3.2 | 12.9 | 0.00 | 0.00 | 0.00 | 67 | 1019.4 |
| 20260508221145 | 17 | 9 | 4.8 | 14.5 | 0.00 | 0.00 | 0.00 | 66 | 1019.5 |
| 20260508220122 | 17 | 12 | 4.8 | 14.5 | 0.00 | 0.00 | 0.00 | 65 | 1019.6 |
| 20260508215124 | 18 | 50 | 3.2 | 12.9 | 0.00 | 0.00 | 0.00 | 64 | 1019.6 |
| 20260508214124 | 18 | 346 | 3.2 | 17.7 | 0.00 | 0.00 | 0.00 | 65 | 1019.4 |
| 20260508213122 | 18 | 340 | 3.2 | 12.9 | 0.00 | 0.00 | 0.00 | 65 | 1019.5 |
| 20260508212123 | 18 | 3 | 4.8 | 17.7 | 0.00 | 0.00 | 0.00 | 66 | 1019.6 |
| 20260508211122 | 18 | 328 | 3.2 | 16.1 | 0.00 | 0.00 | 0.00 | 67 | 1019.4 |
| 20260508210123 | 17 | 33 | 3.2 | 17.7 | 0.00 | 0.00 | 0.00 | 67 | 1019.2 |
| 20260508205124 | 17 | 71 | 3.2 | 12.9 | 0.00 | 0.00 | 0.00 | 67 | 1019.2 |
| 20260508204122 | 18 | 46 | 3.2 | 24.1 | 0.00 | 0.00 | 0.00 | 68 | 1019.1 |
| 20260508203143 | 18 | 322 | 3.2 | 11.3 | 0.00 | 0.00 | 0.00 | 68 | 1019.1 |
| 20260508202124 | 16 | 32 | 3.2 | 12.9 | 0.00 | 0.00 | 0.00 | 72 | 1019.0 |
| 20260508201122 | 16 | 42 | 4.8 | 12.9 | 0.00 | 0.00 | 0.00 | 73 | 1018.6 |
| 20260508200145 | 17 | 24 | 3.2 | 14.5 | 0.00 | 0.00 | 0.00 | 72 | 1018.5 |
| 20260508195124 | 17 | 314 | 3.2 | 12.9 | 0.00 | 0.00 | 0.00 | 72 | 1018.5 |
| 20260508194122 | 17 | 293 | 4.8 | 14.5 | 0.00 | 0.00 | 0.00 | 72 | 1018.4 |
| 20260508193122 | 17 | 18 | 4.8 | 20.9 | 0.00 | 0.00 | 0.00 | 70 | 1018.2 |
| 20260508192124 | 17 | 9 | 4.8 | 17.7 | 0.00 | 0.00 | 0.00 | 72 | 1018.1 |
| 20260508191122 | 16 | 306 | 4.8 | 16.1 | 0.00 | 0.00 | 0.00 | 74 | 1018.0 |
| 20260508190124 | 16 | 350 | 4.8 | 19.3 | 0.00 | 0.00 | 0.00 | 77 | 1018.0 |
| 20260508185124 | 16 | 264 | 4.8 | 14.5 | 0.00 | 0.00 | 0.00 | 79 | 1018.0 |
| 20260508184124 | 15 | 289 | 4.8 | 12.9 | 0.00 | 0.00 | 0.00 | 79 | 1018.0 |
| 20260508183124 | 15 | 249 | 4.8 | 22.5 | 0.00 | 0.00 | 0.00 | 80 | 1017.8 |
| 20260508182144 | 15 | 310 | 3.2 | 11.3 | 0.00 | 0.00 | 0.00 | 79 | 1017.8 |
| 20260508181124 | 15 | 299 | 3.2 | 12.9 | 0.00 | 0.00 | 0.00 | 81 | 1017.7 |
| 20260508180122 | 16 | 268 | 3.2 | 12.9 | 0.00 | 0.00 | 0.00 | 80 | 1017.4 |
| 20260508175123 | 16 | 345 | 3.2 | 12.9 | 0.00 | 0.00 | 0.00 | 79 | 1017.4 |
| 20260508174124 | 15 | 328 | 3.2 | 16.1 | 0.00 | 0.00 | 0.00 | 80 | 1017.5 |
| 20260508173122 | 16 | 3 | 3.2 | 16.1 | 0.00 | 0.00 | 0.00 | 79 | 1017.2 |
| 20260508172124 | 16 | 311 | 4.8 | 17.7 | 0.00 | 0.00 | 0.00 | 77 | 1017.2 |
| 20260508171124 | 16 | 288 | 1.6 | 9.7 | 0.00 | 0.00 | 0.00 | 76 | 1017.1 |
| 20260508170143 | 16 | 290 | 3.2 | 12.9 | 0.00 | 0.00 | 0.00 | 77 | 1016.9 |
| 20260508165123 | 16 | 46 | 4.8 | 20.9 | 0.00 | 0.00 | 0.00 | 76 | 1016.9 |
| 20260508164143 | 16 | 348 | 4.8 | 16.1 | 0.00 | 0.00 | 0.00 | 76 | 1016.8 |
| 20260508163122 | 16 | 330 | 3.2 | 12.9 | 0.00 | 0.00 | 0.00 | 77 | 1016.6 |
| 20260508162124 | 16 | 8 | 1.6 | 12.9 | 0.00 | 0.00 | 0.00 | 78 | 1016.5 |
| 20260508161123 | 15 | 300 | 3.2 | 16.1 | 0.00 | 0.00 | 0.00 | 79 | 1016.5 |
| 20260508160122 | 15 | 21 | 3.2 | 17.7 | 0.00 | 0.00 | 0.00 | 78 | 1016.2 |
| 20260508155144 | 15 | 17 | 1.6 | 12.9 | 0.00 | 0.00 | 0.00 | 78 | 1016.2 |
| 20260508154122 | 15 | 44 | 1.6 | 11.3 | 0.00 | 0.00 | 0.00 | 77 | 1016.2 |
| 20260508153123 | 15 | 19 | 1.6 | 8.0 | 0.00 | 0.00 | 0.00 | 79 | 1016.4 |
| 20260508152124 | 15 | 11 | 1.6 | 9.7 | 0.00 | 0.00 | 0.00 | 80 | 1016.2 |
| 20260508151144 | 15 | 26 | 1.6 | 12.9 | 0.00 | 0.00 | 0.00 | 79 | 1016.2 |
| 20260508150122 | 15 | 344 | 1.6 | 11.3 | 0.00 | 0.00 | 0.00 | 77 | 1016.2 |
| 20260508145124 | 15 | 44 | 1.6 | 14.5 | 0.00 | 0.00 | 0.00 | 79 | 1016.2 |
| 20260508144124 | 15 | 23 | 1.6 | 6.4 | 0.00 | 0.00 | 0.00 | 81 | 1016.1 |
| 20260508143122 | 14 | 47 | 1.6 | 14.5 | 0.00 | 0.00 | 0.00 | 80 | 1016.1 |
| 20260508142124 | 14 | 68 | 1.6 | 12.9 | 0.00 | 0.00 | 0.00 | 80 | 1015.9 |
| 20260508141122 | 14 | 23 | 0.0 | 4.8 | 0.00 | 0.00 | 0.00 | 81 | 1015.7 |
| 20260508140122 | 14 | 273 | 1.6 | 11.3 | 0.00 | 0.00 | 0.00 | 81 | 1015.6 |
| 20260508135144 | 14 | 308 | 0.0 | 4.8 | 0.00 | 0.00 | 0.00 | 81 | 1015.6 |
| 20260508134122 | 14 | 276 | 0.0 | 6.4 | 0.00 | 0.00 | 0.00 | 82 | 1015.8 |
| 20260508133145 | 14 | 360 | 0.0 | 4.8 | 0.00 | 0.00 | 0.00 | 81 | 1015.7 |
| 20260508132124 | 14 | 270 | 0.0 | 6.4 | 0.00 | 0.00 | 0.00 | 81 | 1015.5 |
| 20260508131124 | 14 | 270 | 0.0 | 6.4 | 0.00 | 0.00 | 0.00 | 81 | 1015.6 |
| 20260508130122 | 14 | 23 | 0.0 | 0.0 | 0.00 | 0.00 | 0.00 | 81 | 1015.6 |
| 20260508125123 | 15 | 357 | 0.0 | 6.4 | 0.00 | 0.00 | 0.00 | 79 | 1015.6 |
| 20260508124122 | 15 | 338 | 0.0 | 0.0 | 0.00 | 0.00 | 0.00 | 78 | 1015.6 |
| 20260508123124 | 15 | 27 | 0.0 | 8.0 | 0.00 | 0.00 | 0.00 | 78 | 1015.4 |
| 20260508122124 | 15 | 45 | 0.0 | 4.8 | 0.00 | 0.00 | 0.00 | 78 | 1015.2 |
| 20260508121124 | 15 | 311 | 1.6 | 12.9 | 0.00 | 0.00 | 0.00 | 78 | 1015.2 |
| 20260508120122 | 15 | 347 | 1.6 | 9.7 | 0.00 | 0.00 | 0.00 | 78 | 1015.2 |
| 20260508115124 | 15 | 48 | 1.6 | 12.9 | 0.00 | 0.00 | 0.00 | 78 | 1015.2 |
| 20260508114122 | 14 | 11 | 1.6 | 9.7 | 0.00 | 0.00 | 0.00 | 78 | 1015.2 |
| 20260508113143 | 14 | 303 | 0.0 | 6.4 | 0.00 | 0.00 | 0.00 | 78 | 1015.1 |
| 20260508112145 | 15 | 318 | 1.6 | 11.3 | 0.00 | 0.00 | 0.00 | 77 | 1015.2 |
| 20260508111122 | 14 | 26 | 0.0 | 6.4 | 0.00 | 0.00 | 0.00 | 78 | 1015.0 |
| 20260508110123 | 14 | 32 | 3.2 | 12.9 | 0.00 | 0.00 | 0.00 | 78 | 1014.9 |
| 20260508105123 | 14 | 51 | 1.6 | 12.9 | 0.00 | 0.00 | 0.00 | 79 | 1014.9 |
| 20260508104122 | 14 | 45 | 1.6 | 6.4 | 0.00 | 0.00 | 0.00 | 79 | 1015.1 |
| 20260508103143 | 14 | 48 | 1.6 | 9.7 | 0.00 | 0.00 | 0.00 | 78 | 1015.2 |
| 20260508102123 | 14 | 29 | 0.0 | 11.3 | 0.00 | 0.00 | 0.00 | 78 | 1015.2 |
| 20260508101123 | 14 | 51 | 1.6 | 11.3 | 0.00 | 0.00 | 0.00 | 77 | 1015.2 |
| 20260508100124 | 14 | 42 | 1.6 | 11.3 | 0.00 | 0.00 | 0.00 | 78 | 1015.1 |
| 20260508095124 | 14 | 53 | 0.0 | 6.4 | 0.00 | 0.00 | 0.00 | 80 | 1015.1 |
| 20260508094125 | 14 | 45 | 0.0 | 6.4 | 0.00 | 0.00 | 0.00 | 80 | 1015.1 |
| 20260508093122 | 14 | 45 | 1.6 | 8.0 | 0.00 | 0.00 | 0.00 | 80 | 1015.2 |
| 20260508092124 | 13 | 45 | 1.6 | 8.0 | 0.00 | 0.00 | 0.00 | 80 | 1014.9 |
| 20260508091123 | 13 | 45 | 1.6 | 6.4 | 0.00 | 0.00 | 0.00 | 80 | 1014.8 |
| 20260508090122 | 13 | 54 | 1.6 | 6.4 | 0.00 | 0.00 | 0.00 | 80 | 1014.9 |
| 20260508085123 | 13 | 49 | 1.6 | 12.9 | 0.00 | 0.00 | 0.00 | 80 | 1014.9 |
| 20260508084122 | 13 | 45 | 1.6 | 8.0 | 0.00 | 0.00 | 0.00 | 79 | 1014.9 |
| 20260508083124 | 13 | 45 | 1.6 | 9.7 | 0.00 | 0.00 | 0.00 | 78 | 1014.9 |
| 20260508082124 | 13 | 45 | 0.0 | 6.4 | 0.00 | 0.00 | 0.00 | 78 | 1015.1 |
| 20260508081122 | 14 | 38 | 1.6 | 12.9 | 0.00 | 0.00 | 0.00 | 76 | 1015.2 |
| 20260508080124 | 14 | 45 | 1.6 | 4.8 | 0.00 | 0.00 | 0.00 | 76 | 1015.2 |
| 20260508075124 | 14 | 42 | 1.6 | 12.9 | 0.00 | 0.00 | 0.00 | 76 | 1015.2 |
| 20260508074124 | 15 | 23 | 1.6 | 8.0 | 0.00 | 0.00 | 0.00 | 76 | 1015.2 |
| 20260508073122 | 15 | 23 | 1.6 | 8.0 | 0.00 | 0.00 | 0.00 | 77 | 1015.2 |
| 20260508072124 | 15 | 23 | 0.0 | 11.3 | 0.00 | 0.00 | 0.00 | 77 | 1015.5 |
| 20260508071123 | 15 | 23 | 1.6 | 9.7 | 0.00 | 0.00 | 0.00 | 77 | 1015.5 |
| 20260508070143 | 15 | 325 | 1.6 | 12.9 | 0.00 | 0.00 | 0.00 | 78 | 1015.7 |
| 20260508065124 | 15 | 292 | 0.0 | 4.8 | 0.00 | 0.00 | 0.00 | 85 | 1015.7 |